Bursa Yunuseli Airport

LTBE · Bursa, 土耳其

使用的METAR站距离机场47 km。
罗盘
风向 的 风向 220° 布尔萨省 9/27
风: 3 kt, 1 beaufort

2 kt

2 kt
改变
0 ft 2.000 4.000 6.000 8.000 10.000
Cloud Cloud
FEW 4.000
Cloud Cloud Cloud Cloud
SCT 8.000
METAR LTBR 231720Z 22003KT 9999 FEW040 SCT080 12/03 Q1019 NOSIG RMK RWY07 24004KT

METAR 布尔萨省 - LTBE

布尔萨省是,土耳其中的小机场。 该机场位于纬度40,23326和经度29,00546。 该机场有一条跑道: 9/27. 本场的ICAO机场代码为LTBE。 机场在Istanbul FIR中。

该航空气象观测是针对Bursa Yenişehir Airport在2024年2月23日 20:20, 当地时间进行的。

机场观察

风向为220°,速度为3 kt。

可见度为10 km 或者更多。

有几云在4.000 ft的高度 和 疏云,零星散落的云朵在8.000 ft的高度。 没有观察到天花板。

温度和风寒是12 °C。 露点为3 °C,相对湿度为54%。 海平面上的气压为1019 hPa (QNH)。

白天

今天,太阳从07:46升起,在18:47降落。 这适用于布尔萨省,世界夏令时可能有所不同。 当地时间与世界标准时间之间的时差为+3 小时。 当前,没有夏令时有效。

公司介绍

在这个机场,你可以找到飞行学校。 本场上唯一已知的公司是Uludağ Uçuş Okulları ve Genel Havacılık A.Ş。

体会

到Vliegles.nl去找飞行课程,跳伞和其他飞行体验。 浏览页面,了解布尔萨省附近所有可用的活动。 你也可以使用搜索功能来寻找你所在地附近的特定飞行课程、跳伞或其他飞行体验。

跑道

Id 标题 侧风 逆风 侧风 %
9/27 089°-269° 2 kt 2 kt 75 %

逆风成分最大的方向会被突出显示,并用于横风计算。 这并不一定意味着这个方向在使用。

乌云

4.000 ft FEW 几云
8.000 ft SCT 疏云,零星散落的云朵

温度 & 天气

温度 12 °C
露点 3 °C
相对湿度 54%
Kp-index 0 (0-9)

评论

RWY07 24004KT

白天

日出
07:44 (10:59)
中午
13:15
日落
18:45

小工具

你想在你的网站上有一个关于布尔萨省的当前航空天气(METAR)的小部件吗?

显示HTML代码
?>